sensor_id;sensor_type;location;lat;lon;timestamp;P1;durP1;ratioP1;P2;durP2;ratioP2
22490;SDS011;11412;50.802;4.350;2024-02-21T00:00:45;17.02;;;7.60;;
22490;SDS011;11412;50.802;4.350;2024-02-21T00:03:11;14.93;;;6.72;;
22490;SDS011;11412;50.802;4.350;2024-02-21T00:05:36;18.25;;;7.38;;
22490;SDS011;11412;50.802;4.350;2024-02-21T00:08:02;19.70;;;6.97;;
22490;SDS011;11412;50.802;4.350;2024-02-21T00:10:31;18.85;;;6.85;;
22490;SDS011;11412;50.802;4.350;2024-02-21T00:13:00;20.80;;;7.00;;
22490;SDS011;11412;50.802;4.350;2024-02-21T00:15:26;17.55;;;6.57;;
22490;SDS011;11412;50.802;4.350;2024-02-21T00:17:52;17.42;;;6.55;;
22490;SDS011;11412;50.802;4.350;2024-02-21T00:20:18;18.85;;;6.68;;
22490;SDS011;11412;50.802;4.350;2024-02-21T00:22:45;24.15;;;7.30;;
22490;SDS011;11412;50.802;4.350;2024-02-21T00:25:11;17.10;;;7.05;;
22490;SDS011;11412;50.802;4.350;2024-02-21T00:27:36;17.30;;;6.38;;
22490;SDS011;11412;50.802;4.350;2024-02-21T00:30:02;17.08;;;6.32;;
22490;SDS011;11412;50.802;4.350;2024-02-21T00:32:28;13.07;;;6.80;;
22490;SDS011;11412;50.802;4.350;2024-02-21T00:34:54;12.30;;;5.45;;
22490;SDS011;11412;50.802;4.350;2024-02-21T00:37:20;11.25;;;5.80;;
22490;SDS011;11412;50.802;4.350;2024-02-21T00:39:45;18.73;;;6.25;;
22490;SDS011;11412;50.802;4.350;2024-02-21T00:42:11;14.95;;;6.68;;
22490;SDS011;11412;50.802;4.350;2024-02-21T00:44:37;15.23;;;7.40;;
22490;SDS011;11412;50.802;4.350;2024-02-21T00:47:02;17.88;;;7.57;;
22490;SDS011;11412;50.802;4.350;2024-02-21T00:49:28;16.13;;;7.75;;
22490;SDS011;11412;50.802;4.350;2024-02-21T00:51:54;23.15;;;8.82;;
22490;SDS011;11412;50.802;4.350;2024-02-21T00:54:19;15.48;;;7.70;;
22490;SDS011;11412;50.802;4.350;2024-02-21T00:56:46;14.65;;;7.57;;
22490;SDS011;11412;50.802;4.350;2024-02-21T00:59:12;20.60;;;7.82;;
22490;SDS011;11412;50.802;4.350;2024-02-21T01:01:38;14.35;;;7.68;;
22490;SDS011;11412;50.802;4.350;2024-02-21T01:04:06;18.33;;;8.00;;
22490;SDS011;11412;50.802;4.350;2024-02-21T01:06:32;15.60;;;8.35;;
22490;SDS011;11412;50.802;4.350;2024-02-21T01:08:58;22.83;;;8.10;;
22490;SDS011;11412;50.802;4.350;2024-02-21T01:11:24;16.58;;;7.68;;
22490;SDS011;11412;50.802;4.350;2024-02-21T01:13:50;18.38;;;7.38;;
22490;SDS011;11412;50.802;4.350;2024-02-21T01:16:15;17.23;;;7.00;;
22490;SDS011;11412;50.802;4.350;2024-02-21T01:18:41;18.60;;;7.45;;
22490;SDS011;11412;50.802;4.350;2024-02-21T01:21:07;18.50;;;7.75;;
22490;SDS011;11412;50.802;4.350;2024-02-21T01:23:35;15.07;;;7.50;;
22490;SDS011;11412;50.802;4.350;2024-02-21T01:26:01;17.40;;;7.40;;
22490;SDS011;11412;50.802;4.350;2024-02-21T01:28:27;16.95;;;8.18;;
22490;SDS011;11412;50.802;4.350;2024-02-21T01:30:53;15.63;;;7.45;;
22490;SDS011;11412;50.802;4.350;2024-02-21T01:33:18;20.83;;;7.38;;
22490;SDS011;11412;50.802;4.350;2024-02-21T01:35:44;19.05;;;8.27;;
22490;SDS011;11412;50.802;4.350;2024-02-21T01:38:10;23.17;;;7.75;;
22490;SDS011;11412;50.802;4.350;2024-02-21T01:40:37;21.45;;;8.48;;
22490;SDS011;11412;50.802;4.350;2024-02-21T01:43:03;24.63;;;8.95;;
22490;SDS011;11412;50.802;4.350;2024-02-21T01:45:29;19.05;;;8.60;;
22490;SDS011;11412;50.802;4.350;2024-02-21T01:47:54;15.93;;;8.32;;
22490;SDS011;11412;50.802;4.350;2024-02-21T01:50:20;21.52;;;9.15;;
22490;SDS011;11412;50.802;4.350;2024-02-21T01:52:47;18.13;;;9.18;;
22490;SDS011;11412;50.802;4.350;2024-02-21T01:55:15;19.25;;;8.48;;
22490;SDS011;11412;50.802;4.350;2024-02-21T01:57:42;17.23;;;8.65;;
22490;SDS011;11412;50.802;4.350;2024-02-21T02:00:11;20.92;;;9.60;;
22490;SDS011;11412;50.802;4.350;2024-02-21T02:02:39;20.20;;;9.43;;
22490;SDS011;11412;50.802;4.350;2024-02-21T02:05:07;20.83;;;8.40;;
22490;SDS011;11412;50.802;4.350;2024-02-21T02:07:33;20.25;;;8.65;;
22490;SDS011;11412;50.802;4.350;2024-02-21T02:09:59;20.23;;;8.70;;
22490;SDS011;11412;50.802;4.350;2024-02-21T02:12:25;20.77;;;8.88;;
22490;SDS011;11412;50.802;4.350;2024-02-21T02:15:00;15.95;;;8.10;;
22490;SDS011;11412;50.802;4.350;2024-02-21T02:17:29;16.23;;;8.02;;
22490;SDS011;11412;50.802;4.350;2024-02-21T02:19:55;21.27;;;8.15;;
22490;SDS011;11412;50.802;4.350;2024-02-21T02:22:22;15.43;;;8.25;;
22490;SDS011;11412;50.802;4.350;2024-02-21T02:24:51;15.98;;;8.48;;
22490;SDS011;11412;50.802;4.350;2024-02-21T02:27:17;17.23;;;8.00;;
22490;SDS011;11412;50.802;4.350;2024-02-21T02:29:42;19.85;;;8.30;;
22490;SDS011;11412;50.802;4.350;2024-02-21T02:32:08;17.80;;;8.25;;
22490;SDS011;11412;50.802;4.350;2024-02-21T02:34:34;18.10;;;7.93;;
22490;SDS011;11412;50.802;4.350;2024-02-21T02:36:59;16.33;;;7.20;;
22490;SDS011;11412;50.802;4.350;2024-02-21T02:39:25;12.05;;;7.28;;
22490;SDS011;11412;50.802;4.350;2024-02-21T02:41:51;15.77;;;8.05;;
22490;SDS011;11412;50.802;4.350;2024-02-21T02:44:16;17.33;;;7.85;;
22490;SDS011;11412;50.802;4.350;2024-02-21T02:46:42;22.42;;;8.52;;
22490;SDS011;11412;50.802;4.350;2024-02-21T02:49:08;16.77;;;7.63;;
22490;SDS011;11412;50.802;4.350;2024-02-21T02:51:33;14.77;;;7.25;;
22490;SDS011;11412;50.802;4.350;2024-02-21T02:53:59;12.32;;;7.38;;
22490;SDS011;11412;50.802;4.350;2024-02-21T02:56:25;15.50;;;6.93;;
22490;SDS011;11412;50.802;4.350;2024-02-21T02:58:50;12.98;;;7.50;;
22490;SDS011;11412;50.802;4.350;2024-02-21T03:01:16;18.38;;;7.72;;
22490;SDS011;11412;50.802;4.350;2024-02-21T03:03:42;19.95;;;8.27;;
22490;SDS011;11412;50.802;4.350;2024-02-21T03:06:07;17.15;;;8.20;;
22490;SDS011;11412;50.802;4.350;2024-02-21T03:08:33;18.40;;;7.88;;
22490;SDS011;11412;50.802;4.350;2024-02-21T03:10:59;15.63;;;7.60;;
22490;SDS011;11412;50.802;4.350;2024-02-21T03:13:25;15.10;;;7.88;;
22490;SDS011;11412;50.802;4.350;2024-02-21T03:15:51;18.65;;;8.55;;
22490;SDS011;11412;50.802;4.350;2024-02-21T03:18:17;17.67;;;8.40;;
22490;SDS011;11412;50.802;4.350;2024-02-21T03:20:42;14.00;;;6.75;;
22490;SDS011;11412;50.802;4.350;2024-02-21T03:23:08;13.93;;;7.25;;
22490;SDS011;11412;50.802;4.350;2024-02-21T03:25:34;18.00;;;7.15;;
22490;SDS011;11412;50.802;4.350;2024-02-21T03:27:59;17.90;;;7.53;;
22490;SDS011;11412;50.802;4.350;2024-02-21T03:30:25;16.48;;;7.63;;
22490;SDS011;11412;50.802;4.350;2024-02-21T03:32:50;19.60;;;7.07;;
22490;SDS011;11412;50.802;4.350;2024-02-21T03:35:16;14.55;;;7.40;;
22490;SDS011;11412;50.802;4.350;2024-02-21T03:37:42;14.55;;;7.38;;
22490;SDS011;11412;50.802;4.350;2024-02-21T03:40:09;15.50;;;6.72;;
22490;SDS011;11412;50.802;4.350;2024-02-21T03:42:35;16.48;;;7.00;;
22490;SDS011;11412;50.802;4.350;2024-02-21T03:45:02;18.08;;;7.20;;
22490;SDS011;11412;50.802;4.350;2024-02-21T03:47:28;19.27;;;7.53;;
22490;SDS011;11412;50.802;4.350;2024-02-21T03:49:54;13.55;;;6.95;;
22490;SDS011;11412;50.802;4.350;2024-02-21T03:52:19;15.38;;;7.47;;
22490;SDS011;11412;50.802;4.350;2024-02-21T03:54:45;17.83;;;7.88;;
22490;SDS011;11412;50.802;4.350;2024-02-21T03:57:11;13.15;;;8.18;;
22490;SDS011;11412;50.802;4.350;2024-02-21T03:59:37;17.00;;;8.18;;
22490;SDS011;11412;50.802;4.350;2024-02-21T04:02:05;16.35;;;8.13;;
22490;SDS011;11412;50.802;4.350;2024-02-21T04:04:34;16.60;;;8.15;;
22490;SDS011;11412;50.802;4.350;2024-02-21T04:07:02;19.02;;;8.32;;
22490;SDS011;11412;50.802;4.350;2024-02-21T04:09:31;17.25;;;7.72;;
22490;SDS011;11412;50.802;4.350;2024-02-21T04:11:58;16.83;;;8.05;;
22490;SDS011;11412;50.802;4.350;2024-02-21T04:14:25;16.17;;;8.07;;
22490;SDS011;11412;50.802;4.350;2024-02-21T04:16:50;18.17;;;8.35;;
22490;SDS011;11412;50.802;4.350;2024-02-21T04:19:16;14.88;;;8.00;;
22490;SDS011;11412;50.802;4.350;2024-02-21T04:21:41;16.65;;;8.48;;
22490;SDS011;11412;50.802;4.350;2024-02-21T04:24:07;23.33;;;8.95;;
22490;SDS011;11412;50.802;4.350;2024-02-21T04:26:33;19.45;;;8.43;;
22490;SDS011;11412;50.802;4.350;2024-02-21T04:28:59;18.33;;;8.80;;
22490;SDS011;11412;50.802;4.350;2024-02-21T04:31:25;17.35;;;8.10;;
22490;SDS011;11412;50.802;4.350;2024-02-21T04:33:50;15.85;;;7.93;;
22490;SDS011;11412;50.802;4.350;2024-02-21T04:36:16;11.32;;;8.23;;
22490;SDS011;11412;50.802;4.350;2024-02-21T04:38:42;16.75;;;8.18;;
22490;SDS011;11412;50.802;4.350;2024-02-21T04:41:08;16.40;;;9.00;;
22490;SDS011;11412;50.802;4.350;2024-02-21T04:43:33;15.38;;;8.30;;
22490;SDS011;11412;50.802;4.350;2024-02-21T04:45:59;14.90;;;8.35;;
22490;SDS011;11412;50.802;4.350;2024-02-21T04:48:25;18.90;;;8.52;;
22490;SDS011;11412;50.802;4.350;2024-02-21T04:50:51;15.38;;;8.50;;
22490;SDS011;11412;50.802;4.350;2024-02-21T04:53:16;13.68;;;7.80;;
22490;SDS011;11412;50.802;4.350;2024-02-21T04:55:42;13.98;;;7.28;;
22490;SDS011;11412;50.802;4.350;2024-02-21T04:58:08;13.25;;;7.38;;
22490;SDS011;11412;50.802;4.350;2024-02-21T05:00:34;17.02;;;8.23;;
22490;SDS011;11412;50.802;4.350;2024-02-21T05:02:59;12.23;;;7.07;;
22490;SDS011;11412;50.802;4.350;2024-02-21T05:05:25;15.38;;;7.25;;
22490;SDS011;11412;50.802;4.350;2024-02-21T05:07:51;16.83;;;7.10;;
22490;SDS011;11412;50.802;4.350;2024-02-21T05:10:16;12.45;;;7.03;;
22490;SDS011;11412;50.802;4.350;2024-02-21T05:12:43;16.42;;;7.43;;
22490;SDS011;11412;50.802;4.350;2024-02-21T05:15:09;11.05;;;6.65;;
22490;SDS011;11412;50.802;4.350;2024-02-21T05:17:35;13.02;;;7.50;;
22490;SDS011;11412;50.802;4.350;2024-02-21T05:20:00;13.05;;;6.60;;
22490;SDS011;11412;50.802;4.350;2024-02-21T05:22:26;11.48;;;6.35;;
22490;SDS011;11412;50.802;4.350;2024-02-21T05:24:52;16.42;;;6.57;;
22490;SDS011;11412;50.802;4.350;2024-02-21T05:27:17;12.02;;;6.57;;
22490;SDS011;11412;50.802;4.350;2024-02-21T05:29:43;10.07;;;6.70;;
22490;SDS011;11412;50.802;4.350;2024-02-21T05:32:09;11.60;;;5.70;;
22490;SDS011;11412;50.802;4.350;2024-02-21T05:34:35;14.27;;;6.63;;
22490;SDS011;11412;50.802;4.350;2024-02-21T05:37:01;13.02;;;6.43;;
22490;SDS011;11412;50.802;4.350;2024-02-21T05:39:26;9.93;;;5.85;;
22490;SDS011;11412;50.802;4.350;2024-02-21T05:41:54;10.43;;;6.25;;
22490;SDS011;11412;50.802;4.350;2024-02-21T05:44:20;11.57;;;6.10;;
22490;SDS011;11412;50.802;4.350;2024-02-21T05:46:47;11.23;;;5.68;;
22490;SDS011;11412;50.802;4.350;2024-02-21T05:49:13;10.52;;;5.35;;
22490;SDS011;11412;50.802;4.350;2024-02-21T05:51:39;11.15;;;5.68;;
22490;SDS011;11412;50.802;4.350;2024-02-21T05:54:05;12.25;;;6.30;;
22490;SDS011;11412;50.802;4.350;2024-02-21T05:56:32;8.25;;;5.20;;
22490;SDS011;11412;50.802;4.350;2024-02-21T05:58:58;9.10;;;5.65;;
22490;SDS011;11412;50.802;4.350;2024-02-21T06:01:24;9.25;;;5.05;;
22490;SDS011;11412;50.802;4.350;2024-02-21T06:03:49;9.95;;;5.22;;
22490;SDS011;11412;50.802;4.350;2024-02-21T06:06:15;7.50;;;4.93;;
22490;SDS011;11412;50.802;4.350;2024-02-21T06:08:41;9.20;;;4.88;;
22490;SDS011;11412;50.802;4.350;2024-02-21T06:11:07;7.63;;;4.88;;
22490;SDS011;11412;50.802;4.350;2024-02-21T06:13:32;9.50;;;4.97;;
22490;SDS011;11412;50.802;4.350;2024-02-21T06:15:58;6.63;;;5.07;;
22490;SDS011;11412;50.802;4.350;2024-02-21T06:18:24;7.38;;;4.53;;
22490;SDS011;11412;50.802;4.350;2024-02-21T06:20:49;7.68;;;4.90;;
22490;SDS011;11412;50.802;4.350;2024-02-21T06:23:15;10.93;;;5.43;;
22490;SDS011;11412;50.802;4.350;2024-02-21T06:25:42;9.77;;;5.50;;
22490;SDS011;11412;50.802;4.350;2024-02-21T06:28:08;7.97;;;5.03;;
22490;SDS011;11412;50.802;4.350;2024-02-21T06:30:34;8.05;;;5.25;;
22490;SDS011;11412;50.802;4.350;2024-02-21T06:33:00;8.05;;;6.75;;
22490;SDS011;11412;50.802;4.350;2024-02-21T06:35:27;11.20;;;6.43;;
22490;SDS011;11412;50.802;4.350;2024-02-21T06:37:53;10.10;;;6.65;;
22490;SDS011;11412;50.802;4.350;2024-02-21T06:40:21;10.85;;;6.88;;
22490;SDS011;11412;50.802;4.350;2024-02-21T06:42:47;9.63;;;6.18;;
22490;SDS011;11412;50.802;4.350;2024-02-21T06:45:13;15.57;;;7.22;;
22490;SDS011;11412;50.802;4.350;2024-02-21T06:47:39;9.80;;;6.45;;
22490;SDS011;11412;50.802;4.350;2024-02-21T06:50:04;11.18;;;6.50;;
22490;SDS011;11412;50.802;4.350;2024-02-21T06:52:30;9.25;;;6.95;;
22490;SDS011;11412;50.802;4.350;2024-02-21T06:54:56;9.85;;;6.55;;
22490;SDS011;11412;50.802;4.350;2024-02-21T06:57:22;11.20;;;6.10;;
22490;SDS011;11412;50.802;4.350;2024-02-21T06:59:48;10.88;;;6.85;;
22490;SDS011;11412;50.802;4.350;2024-02-21T07:02:13;10.18;;;6.82;;
22490;SDS011;11412;50.802;4.350;2024-02-21T07:04:39;10.43;;;8.05;;
22490;SDS011;11412;50.802;4.350;2024-02-21T07:07:05;14.70;;;8.48;;
22490;SDS011;11412;50.802;4.350;2024-02-21T07:09:30;11.00;;;8.02;;
22490;SDS011;11412;50.802;4.350;2024-02-21T07:11:57;12.05;;;7.88;;
22490;SDS011;11412;50.802;4.350;2024-02-21T07:14:24;9.45;;;7.57;;
22490;SDS011;11412;50.802;4.350;2024-02-21T07:16:50;10.15;;;7.90;;
22490;SDS011;11412;50.802;4.350;2024-02-21T07:19:15;14.45;;;6.53;;
22490;SDS011;11412;50.802;4.350;2024-02-21T07:21:41;12.07;;;6.82;;
22490;SDS011;11412;50.802;4.350;2024-02-21T07:24:07;12.85;;;7.22;;
22490;SDS011;11412;50.802;4.350;2024-02-21T07:26:33;8.63;;;6.40;;
22490;SDS011;11412;50.802;4.350;2024-02-21T07:28:59;15.02;;;6.60;;
22490;SDS011;11412;50.802;4.350;2024-02-21T07:31:24;14.90;;;8.88;;
22490;SDS011;11412;50.802;4.350;2024-02-21T07:33:50;14.60;;;8.68;;
22490;SDS011;11412;50.802;4.350;2024-02-21T07:36:23;13.57;;;7.22;;
22490;SDS011;11412;50.802;4.350;2024-02-21T07:38:55;11.13;;;7.78;;
22490;SDS011;11412;50.802;4.350;2024-02-21T07:41:21;10.98;;;6.65;;
22490;SDS011;11412;50.802;4.350;2024-02-21T07:43:47;10.10;;;5.93;;
22490;SDS011;11412;50.802;4.350;2024-02-21T07:46:13;13.15;;;5.60;;
22490;SDS011;11412;50.802;4.350;2024-02-21T07:48:39;8.15;;;5.28;;
22490;SDS011;11412;50.802;4.350;2024-02-21T07:51:05;10.13;;;5.38;;
22490;SDS011;11412;50.802;4.350;2024-02-21T07:53:31;8.57;;;4.90;;
22490;SDS011;11412;50.802;4.350;2024-02-21T07:55:56;6.13;;;4.85;;
22490;SDS011;11412;50.802;4.350;2024-02-21T07:58:22;8.05;;;5.28;;
22490;SDS011;11412;50.802;4.350;2024-02-21T08:00:48;8.48;;;4.63;;
22490;SDS011;11412;50.802;4.350;2024-02-21T08:03:13;12.57;;;5.40;;
22490;SDS011;11412;50.802;4.350;2024-02-21T08:05:40;9.50;;;5.38;;
22490;SDS011;11412;50.802;4.350;2024-02-21T08:08:06;9.20;;;5.13;;
22490;SDS011;11412;50.802;4.350;2024-02-21T08:10:33;7.95;;;4.85;;
22490;SDS011;11412;50.802;4.350;2024-02-21T08:12:59;12.15;;;5.20;;
22490;SDS011;11412;50.802;4.350;2024-02-21T08:15:25;11.25;;;5.70;;
22490;SDS011;11412;50.802;4.350;2024-02-21T08:17:54;5.85;;;5.28;;
22490;SDS011;11412;50.802;4.350;2024-02-21T08:20:24;12.15;;;5.18;;
22490;SDS011;11412;50.802;4.350;2024-02-21T08:22:50;8.57;;;4.75;;
22490;SDS011;11412;50.802;4.350;2024-02-21T08:25:16;6.90;;;4.50;;
22490;SDS011;11412;50.802;4.350;2024-02-21T08:27:42;10.00;;;5.60;;
22490;SDS011;11412;50.802;4.350;2024-02-21T08:30:08;7.45;;;4.45;;
22490;SDS011;11412;50.802;4.350;2024-02-21T08:32:34;5.88;;;4.60;;
22490;SDS011;11412;50.802;4.350;2024-02-21T08:35:01;14.63;;;5.13;;
22490;SDS011;11412;50.802;4.350;2024-02-21T08:37:27;7.65;;;4.57;;
22490;SDS011;11412;50.802;4.350;2024-02-21T08:39:53;9.10;;;5.03;;
22490;SDS011;11412;50.802;4.350;2024-02-21T08:42:19;9.20;;;4.63;;
22490;SDS011;11412;50.802;4.350;2024-02-21T08:44:45;7.32;;;4.32;;
22490;SDS011;11412;50.802;4.350;2024-02-21T08:47:10;8.48;;;4.43;;
22490;SDS011;11412;50.802;4.350;2024-02-21T08:49:37;6.40;;;3.85;;
22490;SDS011;11412;50.802;4.350;2024-02-21T08:52:03;8.05;;;4.35;;
22490;SDS011;11412;50.802;4.350;2024-02-21T08:54:31;9.02;;;4.47;;
22490;SDS011;11412;50.802;4.350;2024-02-21T08:57:00;7.90;;;4.28;;
22490;SDS011;11412;50.802;4.350;2024-02-21T08:59:25;5.55;;;3.90;;
22490;SDS011;11412;50.802;4.350;2024-02-21T09:01:51;6.50;;;3.80;;
22490;SDS011;11412;50.802;4.350;2024-02-21T09:04:19;7.47;;;3.88;;
22490;SDS011;11412;50.802;4.350;2024-02-21T09:06:45;4.97;;;3.58;;
22490;SDS011;11412;50.802;4.350;2024-02-21T09:09:11;6.78;;;4.18;;
22490;SDS011;11412;50.802;4.350;2024-02-21T09:11:37;7.28;;;3.95;;
22490;SDS011;11412;50.802;4.350;2024-02-21T09:14:04;7.35;;;3.42;;
22490;SDS011;11412;50.802;4.350;2024-02-21T09:16:31;7.30;;;4.28;;
22490;SDS011;11412;50.802;4.350;2024-02-21T09:18:57;8.02;;;3.65;;
22490;SDS011;11412;50.802;4.350;2024-02-21T09:21:23;7.43;;;4.10;;
22490;SDS011;11412;50.802;4.350;2024-02-21T09:23:48;8.52;;;3.97;;
22490;SDS011;11412;50.802;4.350;2024-02-21T09:26:14;6.75;;;3.22;;
22490;SDS011;11412;50.802;4.350;2024-02-21T09:28:42;8.63;;;3.85;;
22490;SDS011;11412;50.802;4.350;2024-02-21T09:31:08;5.40;;;3.67;;
22490;SDS011;11412;50.802;4.350;2024-02-21T09:33:33;5.35;;;3.30;;
22490;SDS011;11412;50.802;4.350;2024-02-21T09:35:59;7.13;;;3.88;;
22490;SDS011;11412;50.802;4.350;2024-02-21T09:38:25;7.32;;;3.40;;
22490;SDS011;11412;50.802;4.350;2024-02-21T09:43:50;6.03;;;3.25;;
22490;SDS011;11412;50.802;4.350;2024-02-21T09:46:18;14.80;;;3.35;;
22490;SDS011;11412;50.802;4.350;2024-02-21T09:51:28;6.78;;;3.55;;
22490;SDS011;11412;50.802;4.350;2024-02-21T09:53:57;5.82;;;3.42;;
22490;SDS011;11412;50.802;4.350;2024-02-21T09:56:24;8.02;;;3.30;;
22490;SDS011;11412;50.802;4.350;2024-02-21T09:58:50;4.93;;;3.05;;
22490;SDS011;11412;50.802;4.350;2024-02-21T10:01:16;7.78;;;2.95;;
22490;SDS011;11412;50.802;4.350;2024-02-21T10:03:41;8.02;;;3.13;;
22490;SDS011;11412;50.802;4.350;2024-02-21T10:06:08;4.82;;;2.55;;
22490;SDS011;11412;50.802;4.350;2024-02-21T10:08:34;7.97;;;2.70;;
22490;SDS011;11412;50.802;4.350;2024-02-21T10:11:00;7.15;;;3.20;;
22490;SDS011;11412;50.802;4.350;2024-02-21T10:13:28;8.13;;;3.03;;
22490;SDS011;11412;50.802;4.350;2024-02-21T10:16:03;8.00;;;2.97;;
22490;SDS011;11412;50.802;4.350;2024-02-21T10:18:30;12.25;;;4.45;;
22490;SDS011;11412;50.802;4.350;2024-02-21T10:21:03;6.05;;;2.95;;
22490;SDS011;11412;50.802;4.350;2024-02-21T10:23:44;7.20;;;3.22;;
22490;SDS011;11412;50.802;4.350;2024-02-21T10:26:19;5.60;;;3.05;;
22490;SDS011;11412;50.802;4.350;2024-02-21T10:28:45;6.43;;;2.63;;
22490;SDS011;11412;50.802;4.350;2024-02-21T10:31:21;5.57;;;2.88;;
22490;SDS011;11412;50.802;4.350;2024-02-21T10:33:55;11.00;;;3.35;;
22490;SDS011;11412;50.802;4.350;2024-02-21T10:36:25;10.48;;;3.50;;
22490;SDS011;11412;50.802;4.350;2024-02-21T10:38:54;7.88;;;3.33;;
22490;SDS011;11412;50.802;4.350;2024-02-21T10:41:21;9.13;;;3.35;;
22490;SDS011;11412;50.802;4.350;2024-02-21T10:43:51;10.13;;;3.72;;
22490;SDS011;11412;50.802;4.350;2024-02-21T10:46:19;6.45;;;3.10;;
22490;SDS011;11412;50.802;4.350;2024-02-21T10:48:47;6.82;;;3.35;;
22490;SDS011;11412;50.802;4.350;2024-02-21T10:51:17;8.05;;;2.97;;
22490;SDS011;11412;50.802;4.350;2024-02-21T10:56:38;5.75;;;2.60;;
22490;SDS011;11412;50.802;4.350;2024-02-21T10:59:06;9.15;;;3.65;;
22490;SDS011;11412;50.802;4.350;2024-02-21T11:01:33;8.15;;;2.70;;
22490;SDS011;11412;50.802;4.350;2024-02-21T11:04:04;9.45;;;3.08;;
22490;SDS011;11412;50.802;4.350;2024-02-21T11:06:31;5.65;;;2.42;;
22490;SDS011;11412;50.802;4.350;2024-02-21T11:09:06;4.18;;;2.58;;
22490;SDS011;11412;50.802;4.350;2024-02-21T11:11:37;5.03;;;2.42;;
22490;SDS011;11412;50.802;4.350;2024-02-21T11:14:03;5.28;;;2.55;;
22490;SDS011;11412;50.802;4.350;2024-02-21T11:16:37;8.53;;;2.60;;
22490;SDS011;11412;50.802;4.350;2024-02-21T11:21:50;4.88;;;2.80;;
22490;SDS011;11412;50.802;4.350;2024-02-21T11:24:26;7.78;;;3.28;;
22490;SDS011;11412;50.802;4.350;2024-02-21T11:26:54;8.15;;;2.45;;
22490;SDS011;11412;50.802;4.350;2024-02-21T11:29:23;9.25;;;2.92;;
22490;SDS011;11412;50.802;4.350;2024-02-21T11:31:50;4.05;;;2.70;;
22490;SDS011;11412;50.802;4.350;2024-02-21T11:34:17;8.50;;;2.70;;
22490;SDS011;11412;50.802;4.350;2024-02-21T11:36:47;3.72;;;2.47;;
22490;SDS011;11412;50.802;4.350;2024-02-21T11:39:18;9.55;;;3.10;;
22490;SDS011;11412;50.802;4.350;2024-02-21T11:41:59;5.85;;;2.70;;
22490;SDS011;11412;50.802;4.350;2024-02-21T11:44:29;6.40;;;3.00;;
22490;SDS011;11412;50.802;4.350;2024-02-21T11:46:55;6.57;;;2.80;;
22490;SDS011;11412;50.802;4.350;2024-02-21T11:49:21;7.63;;;2.83;;
22490;SDS011;11412;50.802;4.350;2024-02-21T11:51:47;4.68;;;3.10;;
22490;SDS011;11412;50.802;4.350;2024-02-21T11:54:13;6.57;;;3.33;;
22490;SDS011;11412;50.802;4.350;2024-02-21T11:56:41;4.57;;;2.70;;
22490;SDS011;11412;50.802;4.350;2024-02-21T11:59:08;6.78;;;2.97;;
22490;SDS011;11412;50.802;4.350;2024-02-21T12:01:34;4.90;;;3.28;;
22490;SDS011;11412;50.802;4.350;2024-02-21T12:03:59;6.22;;;3.13;;
22490;SDS011;11412;50.802;4.350;2024-02-21T12:06:25;5.72;;;3.53;;
22490;SDS011;11412;50.802;4.350;2024-02-21T12:08:51;7.03;;;3.10;;
22490;SDS011;11412;50.802;4.350;2024-02-21T12:11:21;6.15;;;3.25;;
22490;SDS011;11412;50.802;4.350;2024-02-21T12:14:08;5.63;;;3.13;;
22490;SDS011;11412;50.802;4.350;2024-02-21T12:16:34;7.25;;;3.60;;
22490;SDS011;11412;50.802;4.350;2024-02-21T12:19:03;6.97;;;3.20;;
22490;SDS011;11412;50.802;4.350;2024-02-21T12:21:30;9.50;;;3.38;;
22490;SDS011;11412;50.802;4.350;2024-02-21T12:23:58;7.65;;;3.13;;
22490;SDS011;11412;50.802;4.350;2024-02-21T12:26:24;6.53;;;2.65;;
22490;SDS011;11412;50.802;4.350;2024-02-21T12:28:50;5.63;;;3.38;;
22490;SDS011;11412;50.802;4.350;2024-02-21T12:31:16;6.28;;;2.80;;
22490;SDS011;11412;50.802;4.350;2024-02-21T12:33:43;4.68;;;2.90;;
22490;SDS011;11412;50.802;4.350;2024-02-21T12:36:08;8.63;;;2.75;;
22490;SDS011;11412;50.802;4.350;2024-02-21T12:38:35;6.07;;;2.90;;
22490;SDS011;11412;50.802;4.350;2024-02-21T12:41:01;10.52;;;3.72;;
22490;SDS011;11412;50.802;4.350;2024-02-21T12:43:27;8.88;;;3.25;;
22490;SDS011;11412;50.802;4.350;2024-02-21T12:45:52;8.57;;;3.58;;
22490;SDS011;11412;50.802;4.350;2024-02-21T12:48:18;5.28;;;3.28;;
22490;SDS011;11412;50.802;4.350;2024-02-21T12:50:50;8.27;;;4.93;;
22490;SDS011;11412;50.802;4.350;2024-02-21T12:53:17;3.80;;;3.25;;
22490;SDS011;11412;50.802;4.350;2024-02-21T12:55:46;6.32;;;3.60;;
22490;SDS011;11412;50.802;4.350;2024-02-21T12:58:13;10.85;;;3.50;;
22490;SDS011;11412;50.802;4.350;2024-02-21T13:00:39;6.03;;;3.35;;
22490;SDS011;11412;50.802;4.350;2024-02-21T13:03:06;6.85;;;3.65;;
22490;SDS011;11412;50.802;4.350;2024-02-21T13:05:32;6.97;;;3.92;;
22490;SDS011;11412;50.802;4.350;2024-02-21T13:07:58;8.00;;;3.85;;
22490;SDS011;11412;50.802;4.350;2024-02-21T13:10:24;8.68;;;3.17;;
22490;SDS011;11412;50.802;4.350;2024-02-21T13:12:50;9.38;;;3.42;;
22490;SDS011;11412;50.802;4.350;2024-02-21T13:15:16;6.18;;;3.50;;
22490;SDS011;11412;50.802;4.350;2024-02-21T13:17:43;8.48;;;4.00;;
22490;SDS011;11412;50.802;4.350;2024-02-21T13:20:10;9.10;;;4.13;;
22490;SDS011;11412;50.802;4.350;2024-02-21T13:22:36;9.07;;;3.85;;
22490;SDS011;11412;50.802;4.350;2024-02-21T13:25:03;7.68;;;3.25;;
22490;SDS011;11412;50.802;4.350;2024-02-21T13:27:30;5.15;;;3.05;;
22490;SDS011;11412;50.802;4.350;2024-02-21T13:29:56;9.27;;;3.60;;
22490;SDS011;11412;50.802;4.350;2024-02-21T13:32:22;8.25;;;3.80;;
22490;SDS011;11412;50.802;4.350;2024-02-21T13:34:48;9.07;;;3.72;;
22490;SDS011;11412;50.802;4.350;2024-02-21T13:37:13;6.88;;;3.90;;
22490;SDS011;11412;50.802;4.350;2024-02-21T13:39:40;8.68;;;3.22;;
22490;SDS011;11412;50.802;4.350;2024-02-21T13:42:05;5.82;;;3.10;;
22490;SDS011;11412;50.802;4.350;2024-02-21T13:44:31;5.65;;;3.45;;
22490;SDS011;11412;50.802;4.350;2024-02-21T13:46:57;8.48;;;4.70;;
22490;SDS011;11412;50.802;4.350;2024-02-21T13:49:23;6.50;;;3.20;;
22490;SDS011;11412;50.802;4.350;2024-02-21T13:51:49;9.15;;;5.38;;
22490;SDS011;11412;50.802;4.350;2024-02-21T13:54:14;7.35;;;3.30;;
22490;SDS011;11412;50.802;4.350;2024-02-21T13:56:44;7.80;;;3.78;;
22490;SDS011;11412;50.802;4.350;2024-02-21T13:59:11;6.63;;;3.78;;
22490;SDS011;11412;50.802;4.350;2024-02-21T14:01:38;7.18;;;3.80;;
22490;SDS011;11412;50.802;4.350;2024-02-21T14:04:04;10.10;;;4.07;;
22490;SDS011;11412;50.802;4.350;2024-02-21T14:06:29;10.52;;;3.88;;
22490;SDS011;11412;50.802;4.350;2024-02-21T14:08:55;6.35;;;3.50;;
22490;SDS011;11412;50.802;4.350;2024-02-21T14:11:21;7.22;;;3.90;;
22490;SDS011;11412;50.802;4.350;2024-02-21T14:13:47;6.00;;;3.58;;
22490;SDS011;11412;50.802;4.350;2024-02-21T14:16:12;5.30;;;3.63;;
22490;SDS011;11412;50.802;4.350;2024-02-21T14:18:39;6.80;;;3.70;;
22490;SDS011;11412;50.802;4.350;2024-02-21T14:21:08;8.07;;;3.78;;
22490;SDS011;11412;50.802;4.350;2024-02-21T14:23:36;9.45;;;4.03;;
22490;SDS011;11412;50.802;4.350;2024-02-21T14:26:02;6.88;;;3.60;;
22490;SDS011;11412;50.802;4.350;2024-02-21T14:28:34;6.82;;;4.13;;
22490;SDS011;11412;50.802;4.350;2024-02-21T14:31:00;9.98;;;4.13;;
22490;SDS011;11412;50.802;4.350;2024-02-21T14:33:26;10.95;;;4.43;;
22490;SDS011;11412;50.802;4.350;2024-02-21T14:35:52;7.05;;;4.40;;
22490;SDS011;11412;50.802;4.350;2024-02-21T14:38:18;6.72;;;4.13;;
22490;SDS011;11412;50.802;4.350;2024-02-21T14:40:44;4.68;;;3.78;;
22490;SDS011;11412;50.802;4.350;2024-02-21T14:43:10;6.45;;;3.72;;
22490;SDS011;11412;50.802;4.350;2024-02-21T14:45:36;7.97;;;4.28;;
22490;SDS011;11412;50.802;4.350;2024-02-21T14:48:03;7.40;;;3.78;;